Heydar Aliyev — 9HFS7 — position and weather

sailwx.info

Track history (hours):
 
Tides and Currents Weather Stations Pressure Air Temp Water Temp Dewpoint Dewpoint Depression Visibility Wind Speed Wind Dir Waves Ship Positions

Heydar Aliyev

Last reported at 2015-Feb-24 21:21 UTC. Time now 2015-Feb-28 15:56 UTC.
Position N 33°58' E 033°01'.

Length 274 m; draft 16.5 m.

Type: Tanker. MMSI: 215213000.

Date/timePositionNaut miles runAvg speedWind from/ knotsBaromVisibWave heightAir tempDewpointWater temp
2015-Feb-24 21:21N 33°58' E 033°01'1012.0
2015-Feb-24 20:33N 34°07' E 033°05'1313.0
2015-Feb-24 19:33N 34°20' E 033°08'1312.5
2015-Feb-24 18:33N 34°32' E 033°09'4 3.6
2015-Feb-24 17:33N 34°35' E 033°09'0 0.2
2015-Feb-24 16:33N 34°35' E 033°09'1 0.9
2015-Feb-24 15:33N 34°35' E 033°09'9 9.1
2015-Feb-24 14:33N 34°25' E 033°09'9 9.0
2015-Feb-24 13:31N 34°17' E 033°06'1 0.8
2015-Feb-24 12:18N 34°16' E 033°05'1 1.0
2015-Feb-24 11:33N 34°16' E 033°06'1 0.9
2015-Feb-24 10:33N 34°17' E 033°07'1 1.2
2015-Feb-24 09:25N 34°18' E 033°08'1 1.4
2015-Feb-24 08:27N 34°18' E 033°09'1 1.5
2015-Feb-24 07:33N 34°19' E 033°11'6 1.4
2015-Feb-24 03:17N 34°23' E 033°16'1 1.2
2015-Feb-24 02:17N 34°24' E 033°17'1 1.1
2015-Feb-24 01:33N 34°25' E 033°17'1 0.9
2015-Feb-24 00:33N 34°26' E 033°18'1 0.9
2015-Feb-23 23:33N 34°27' E 033°18'1 0.7
2015-Feb-23 22:33N 34°27' E 033°19'1 0.6
2015-Feb-23 21:33N 34°28' E 033°19'0 0.5
2015-Feb-23 20:32N 34°28' E 033°19'1 0.6
2015-Feb-23 19:33N 34°29' E 033°18'1 1.5
2015-Feb-23 18:33N 34°27' E 033°18'3 3.1
2015-Feb-23 17:33N 34°24' E 033°18'4 3.4
2015-Feb-23 16:15N 34°20' E 033°18'1 1.5
2015-Feb-23 15:32N 34°20' E 033°19'5 5.2
2015-Feb-23 14:33N 34°26' E 033°18'4 3.6
2015-Feb-23 13:33N 34°29' E 033°17'0 0.4
2015-Feb-23 12:33N 34°29' E 033°18'0 0.5
2015-Feb-23 11:33N 34°29' E 033°18'1 0.8
2015-Feb-23 10:33N 34°29' E 033°19'1 0.8
2015-Feb-23 09:33N 34°30' E 033°20'1 0.8
2015-Feb-23 08:33N 34°30' E 033°21'1 0.8
2015-Feb-23 07:33N 34°30' E 033°22'1 0.7
2015-Feb-23 06:33N 34°30' E 033°23'1 0.6
2015-Feb-23 05:33N 34°30' E 033°23'1 0.5
2015-Feb-23 04:33N 34°30' E 033°24'0 0.5
2015-Feb-23 03:33N 34°29' E 033°25'1 0.5
2015-Feb-23 02:33N 34°29' E 033°25'1 0.5
2015-Feb-23 01:33N 34°29' E 033°26'0 0.5
2015-Feb-23 00:33N 34°28' E 033°26'0 0.5
2015-Feb-22 23:33N 34°28' E 033°26'0 0.3
2015-Feb-22 22:33N 34°28' E 033°27'0 0.3
2015-Feb-22 21:33N 34°28' E 033°27'1 1.2
2015-Feb-22 20:33N 34°29' E 033°27'4 3.3
2015-Feb-22 19:18N 34°32' E 033°31'5 1.6
2015-Feb-22 16:25N 34°35' E 033°35'1 0.6
2015-Feb-22 15:30N 34°34' E 033°36'0 0.4
2015-Feb-22 14:33N 34°34' E 033°35'1 0.4
2015-Feb-22 12:33N 34°33' E 033°35'1 0.7
2015-Feb-22 11:30N 34°33' E 033°34'1 0.9
2015-Feb-22 10:16N 34°33' E 033°33'1 1.1
2015-Feb-22 09:33N 34°32' E 033°32'5 2.2
2015-Feb-22 07:18N 34°32' E 033°26'4 4.8
2015-Feb-22 06:33N 34°31' E 033°21'3 3.5
2015-Feb-22 05:33N 34°30' E 033°17'8 7.6
2015-Feb-22 04:33N 34°23' E 033°21'1 0.6
2015-Feb-22 03:33N 34°23' E 033°20'1 0.7
2015-Feb-22 02:32N 34°24' E 033°20'1 0.7
2015-Feb-22 01:31N 34°25' E 033°19'1 0.6
2015-Feb-22 00:33N 34°25' E 033°19'0 0.4
2015-Feb-21 23:33N 34°25' E 033°18'1 0.5
2015-Feb-21 22:33N 34°25' E 033°18'1 0.8
2015-Feb-21 21:33N 34°25' E 033°17'0 0.4
2015-Feb-21 20:33N 34°25' E 033°17'1 0.7
2015-Feb-21 19:33N 34°25' E 033°17'12 1.7
2015-Feb-21 12:27N 34°21' E 033°31'11 0.5
2015-Feb-20 14:32N 34°32' E 033°32'5 5.3
2015-Feb-20 13:33N 34°30' E 033°26'4 3.7
2015-Feb-20 12:33N 34°29' E 033°22'2 2.1
2015-Feb-20 11:33N 34°28' E 033°20'4 3.7
2015-Feb-20 10:33N 34°27' E 033°15'3 3.0
2015-Feb-20 09:33N 34°28' E 033°19'7 6.5
2015-Feb-20 08:33N 34°30' E 033°26'1 1.5
2015-Feb-20 07:33N 34°31' E 033°28'2 2.4
2015-Feb-20 06:33N 34°30' E 033°25'3 2.9
2015-Feb-20 05:32N 34°29' E 033°21'5 5.4
2015-Feb-20 04:33N 34°27' E 033°16'2 1.6
2015-Feb-20 03:33N 34°26' E 033°17'5 4.7
2015-Feb-20 02:33N 34°27' E 033°23'5 4.8
2015-Feb-20 01:33N 34°28' E 033°28'5 5.3
2015-Feb-20 00:32N 34°30' E 033°34'4 0.6
2015-Feb-19 17:22N 34°27' E 033°31'3 3.9
2015-Feb-19 16:30N 34°26' E 033°27'6 6.8
2015-Feb-19 15:33N 34°24' E 033°20'7 6.6
2015-Feb-19 14:33N 34°22' E 033°12'5 4.7
2015-Feb-19 13:33N 34°20' E 033°07'3 2.9
2015-Feb-19 12:33N 34°21' E 033°10'3 3.5
2015-Feb-19 11:33N 34°23' E 033°13'3 3.1
2015-Feb-19 10:33N 34°25' E 033°16'3 2.5
2015-Feb-19 09:33N 34°27' E 033°18'3 3.2
2015-Feb-19 08:33N 34°30' E 033°20'2 2.0
2015-Feb-19 07:33N 34°30' E 033°22'3 3.1
2015-Feb-19 06:33N 34°28' E 033°25'3 3.2
2015-Feb-19 05:33N 34°26' E 033°28'3 2.9
2015-Feb-19 04:31N 34°27' E 033°32'2 2.6
2015-Feb-19 03:33N 34°27' E 033°35'4 2.0
2015-Feb-19 01:31N 34°29' E 033°40'2 2.4
2015-Feb-19 00:32N 34°30' E 033°42'2 2.1
2015-Feb-18 23:28N 34°31' E 033°44'10 2.0
2015-Feb-18 18:30N 34°29' E 033°33'6 6.0
2015-Feb-18 17:33N 34°27' E 033°26'7 7.2
2015-Feb-18 16:32N 34°24' E 033°18'7 7.3
2015-Feb-18 15:33N 34°22' E 033°10'4 3.9
2015-Feb-18 14:33N 34°20' E 033°06'2 2.0
2015-Feb-18 13:33N 34°20' E 033°08'1 1.4
2015-Feb-18 12:33N 34°20' E 033°10'2 1.6
2015-Feb-18 11:32N 34°21' E 033°12'2 1.7
2015-Feb-18 10:33N 34°22' E 033°13'2 1.9
2015-Feb-18 09:32N 34°22' E 033°16'3 2.6
2015-Feb-18 08:33N 34°21' E 033°19'1 1.0
2015-Feb-18 07:33N 34°22' E 033°20'2 2.3
2015-Feb-18 06:33N 34°23' E 033°18'2 2.5
2015-Feb-18 05:33N 34°24' E 033°15'8 7.5
2015-Feb-18 04:30N 34°19' E 033°22'1 0.7
2015-Feb-18 03:26N 34°18' E 033°23'1 1.6
2015-Feb-18 02:33N 34°19' E 033°21'2 1.6
2015-Feb-18 01:30N 34°20' E 033°19'2 1.7
2015-Feb-18 00:33N 34°20' E 033°17'1 1.1
2015-Feb-17 23:33N 34°21' E 033°16'1 1.2
2015-Feb-17 22:33N 34°21' E 033°15'1 0.6
2015-Feb-17 21:33N 34°22' E 033°14'0 0.3
2015-Feb-17 20:33N 34°22' E 033°14'2 2.5
2015-Feb-17 19:33N 34°24' E 033°12'2 0.9
2015-Feb-17 17:32N 34°22' E 033°11'2 1.8
2015-Feb-17 16:32N 34°24' E 033°12'8 8.5
2015-Feb-17 15:33N 34°31' E 033°17'1 1.5
2015-Feb-17 14:33N 34°30' E 033°16'1110.8
2015-Feb-17 13:33N 34°29' E 033°03'1313.4
2015-Feb-17 12:33N 34°27' E 032°46'1313.2
2015-Feb-17 11:33N 34°30' E 032°31'33311.9
2015-Feb-16 07:28N 36°42' E 026°14'12610.6
2015-Feb-15 19:32N 37°29' E 023°47'1313.6
2015-Feb-15 18:33N 37°42' E 023°41'1211.6
2015-Feb-15 17:33N 37°50' E 023°30'1413.5
2015-Feb-15 16:32N 37°53' E 023°13'  
Track history (hours):
 
Tides and Currents Weather Stations Pressure Air Temp Water Temp Dewpoint Dewpoint Depression Visibility Wind Speed Wind Dir Waves Ship Positions

Heydar Aliyev

Last reported at 2015-Feb-24 21:21 UTC. Time now 2015-Feb-28 15:56 UTC.
Position N 33°58' E 033°01'.

Length 274 m; draft 16.5 m.

Type: Tanker. MMSI: 215213000.

Date/timePositionNaut miles runAvg speedWind from/ knotsBaromVisibWave heightAir tempDewpointWater temp
2015-Feb-24 21:21N 33°58' E 033°01'1012.0
2015-Feb-24 20:33N 34°07' E 033°05'1313.0
2015-Feb-24 19:33N 34°20' E 033°08'1312.5
2015-Feb-24 18:33N 34°32' E 033°09'4 3.6
2015-Feb-24 17:33N 34°35' E 033°09'0 0.2
2015-Feb-24 16:33N 34°35' E 033°09'1 0.9
2015-Feb-24 15:33N 34°35' E 033°09'9 9.1
2015-Feb-24 14:33N 34°25' E 033°09'9 9.0
2015-Feb-24 13:31N 34°17' E 033°06'1 0.8
2015-Feb-24 12:18N 34°16' E 033°05'1 1.0
2015-Feb-24 11:33N 34°16' E 033°06'1 0.9
2015-Feb-24 10:33N 34°17' E 033°07'1 1.2
2015-Feb-24 09:25N 34°18' E 033°08'1 1.4
2015-Feb-24 08:27N 34°18' E 033°09'1 1.5
2015-Feb-24 07:33N 34°19' E 033°11'6 1.4
2015-Feb-24 03:17N 34°23' E 033°16'1 1.2
2015-Feb-24 02:17N 34°24' E 033°17'1 1.1
2015-Feb-24 01:33N 34°25' E 033°17'1 0.9
2015-Feb-24 00:33N 34°26' E 033°18'1 0.9
2015-Feb-23 23:33N 34°27' E 033°18'1 0.7
2015-Feb-23 22:33N 34°27' E 033°19'1 0.6
2015-Feb-23 21:33N 34°28' E 033°19'0 0.5
2015-Feb-23 20:32N 34°28' E 033°19'1 0.6
2015-Feb-23 19:33N 34°29' E 033°18'1 1.5
2015-Feb-23 18:33N 34°27' E 033°18'3 3.1
2015-Feb-23 17:33N 34°24' E 033°18'4 3.4
2015-Feb-23 16:15N 34°20' E 033°18'1 1.5
2015-Feb-23 15:32N 34°20' E 033°19'5 5.2
2015-Feb-23 14:33N 34°26' E 033°18'4 3.6
2015-Feb-23 13:33N 34°29' E 033°17'0 0.4
2015-Feb-23 12:33N 34°29' E 033°18'0 0.5
2015-Feb-23 11:33N 34°29' E 033°18'1 0.8
2015-Feb-23 10:33N 34°29' E 033°19'1 0.8
2015-Feb-23 09:33N 34°30' E 033°20'1 0.8
2015-Feb-23 08:33N 34°30' E 033°21'1 0.8
2015-Feb-23 07:33N 34°30' E 033°22'1 0.7
2015-Feb-23 06:33N 34°30' E 033°23'1 0.6
2015-Feb-23 05:33N 34°30' E 033°23'1 0.5
2015-Feb-23 04:33N 34°30' E 033°24'0 0.5
2015-Feb-23 03:33N 34°29' E 033°25'1 0.5
2015-Feb-23 02:33N 34°29' E 033°25'1 0.5
2015-Feb-23 01:33N 34°29' E 033°26'0 0.5
2015-Feb-23 00:33N 34°28' E 033°26'0 0.5
2015-Feb-22 23:33N 34°28' E 033°26'0 0.3
2015-Feb-22 22:33N 34°28' E 033°27'0 0.3
2015-Feb-22 21:33N 34°28' E 033°27'1 1.2
2015-Feb-22 20:33N 34°29' E 033°27'4 3.3
2015-Feb-22 19:18N 34°32' E 033°31'5 1.6
2015-Feb-22 16:25N 34°35' E 033°35'1 0.6
2015-Feb-22 15:30N 34°34' E 033°36'0 0.4
2015-Feb-22 14:33N 34°34' E 033°35'1 0.4
2015-Feb-22 12:33N 34°33' E 033°35'1 0.7
2015-Feb-22 11:30N 34°33' E 033°34'1 0.9
2015-Feb-22 10:16N 34°33' E 033°33'1 1.1
2015-Feb-22 09:33N 34°32' E 033°32'5 2.2
2015-Feb-22 07:18N 34°32' E 033°26'4 4.8
2015-Feb-22 06:33N 34°31' E 033°21'3 3.5
2015-Feb-22 05:33N 34°30' E 033°17'8 7.6
2015-Feb-22 04:33N 34°23' E 033°21'1 0.6
2015-Feb-22 03:33N 34°23' E 033°20'1 0.7
2015-Feb-22 02:32N 34°24' E 033°20'1 0.7
2015-Feb-22 01:31N 34°25' E 033°19'1 0.6
2015-Feb-22 00:33N 34°25' E 033°19'0 0.4
2015-Feb-21 23:33N 34°25' E 033°18'1 0.5
2015-Feb-21 22:33N 34°25' E 033°18'1 0.8
2015-Feb-21 21:33N 34°25' E 033°17'0 0.4
2015-Feb-21 20:33N 34°25' E 033°17'1 0.7
2015-Feb-21 19:33N 34°25' E 033°17'12 1.7
2015-Feb-21 12:27N 34°21' E 033°31'11 0.5
2015-Feb-20 14:32N 34°32' E 033°32'5 5.3
2015-Feb-20 13:33N 34°30' E 033°26'4 3.7
2015-Feb-20 12:33N 34°29' E 033°22'2 2.1
2015-Feb-20 11:33N 34°28' E 033°20'4 3.7
2015-Feb-20 10:33N 34°27' E 033°15'3 3.0
2015-Feb-20 09:33N 34°28' E 033°19'7 6.5
2015-Feb-20 08:33N 34°30' E 033°26'1 1.5
2015-Feb-20 07:33N 34°31' E 033°28'2 2.4
2015-Feb-20 06:33N 34°30' E 033°25'3 2.9
2015-Feb-20 05:32N 34°29' E 033°21'5 5.4
2015-Feb-20 04:33N 34°27' E 033°16'2 1.6
2015-Feb-20 03:33N 34°26' E 033°17'5 4.7
2015-Feb-20 02:33N 34°27' E 033°23'5 4.8
2015-Feb-20 01:33N 34°28' E 033°28'5 5.3
2015-Feb-20 00:32N 34°30' E 033°34'4 0.6
2015-Feb-19 17:22N 34°27' E 033°31'3 3.9
2015-Feb-19 16:30N 34°26' E 033°27'6 6.8
2015-Feb-19 15:33N 34°24' E 033°20'7 6.6
2015-Feb-19 14:33N 34°22' E 033°12'5 4.7
2015-Feb-19 13:33N 34°20' E 033°07'3 2.9
2015-Feb-19 12:33N 34°21' E 033°10'3 3.5
2015-Feb-19 11:33N 34°23' E 033°13'3 3.1
2015-Feb-19 10:33N 34°25' E 033°16'3 2.5
2015-Feb-19 09:33N 34°27' E 033°18'3 3.2
2015-Feb-19 08:33N 34°30' E 033°20'2 2.0
2015-Feb-19 07:33N 34°30' E 033°22'3 3.1
2015-Feb-19 06:33N 34°28' E 033°25'3 3.2
2015-Feb-19 05:33N 34°26' E 033°28'3 2.9
2015-Feb-19 04:31N 34°27' E 033°32'2 2.6
2015-Feb-19 03:33N 34°27' E 033°35'4 2.0
2015-Feb-19 01:31N 34°29' E 033°40'2 2.4
2015-Feb-19 00:32N 34°30' E 033°42'2 2.1
2015-Feb-18 23:28N 34°31' E 033°44'10 2.0
2015-Feb-18 18:30N 34°29' E 033°33'6 6.0
2015-Feb-18 17:33N 34°27' E 033°26'7 7.2
2015-Feb-18 16:32N 34°24' E 033°18'7 7.3
2015-Feb-18 15:33N 34°22' E 033°10'4 3.9
2015-Feb-18 14:33N 34°20' E 033°06'2 2.0
2015-Feb-18 13:33N 34°20' E 033°08'1 1.4
2015-Feb-18 12:33N 34°20' E 033°10'2 1.6
2015-Feb-18 11:32N 34°21' E 033°12'2 1.7
2015-Feb-18 10:33N 34°22' E 033°13'2 1.9
2015-Feb-18 09:32N 34°22' E 033°16'3 2.6
2015-Feb-18 08:33N 34°21' E 033°19'1 1.0
2015-Feb-18 07:33N 34°22' E 033°20'2 2.3
2015-Feb-18 06:33N 34°23' E 033°18'2 2.5
2015-Feb-18 05:33N 34°24' E 033°15'8 7.5
2015-Feb-18 04:30N 34°19' E 033°22'1 0.7
2015-Feb-18 03:26N 34°18' E 033°23'1 1.6
2015-Feb-18 02:33N 34°19' E 033°21'2 1.6
2015-Feb-18 01:30N 34°20' E 033°19'2 1.7
2015-Feb-18 00:33N 34°20' E 033°17'1 1.1
2015-Feb-17 23:33N 34°21' E 033°16'1 1.2
2015-Feb-17 22:33N 34°21' E 033°15'1 0.6
2015-Feb-17 21:33N 34°22' E 033°14'0 0.3
2015-Feb-17 20:33N 34°22' E 033°14'2 2.5
2015-Feb-17 19:33N 34°24' E 033°12'2 0.9
2015-Feb-17 17:32N 34°22' E 033°11'2 1.8
2015-Feb-17 16:32N 34°24' E 033°12'8 8.5
2015-Feb-17 15:33N 34°31' E 033°17'1 1.5
2015-Feb-17 14:33N 34°30' E 033°16'1110.8
2015-Feb-17 13:33N 34°29' E 033°03'1313.4
2015-Feb-17 12:33N 34°27' E 032°46'1313.2
2015-Feb-17 11:33N 34°30' E 032°31'33311.9
2015-Feb-16 07:28N 36°42' E 026°14'12610.6
2015-Feb-15 19:32N 37°29' E 023°47'1313.6
2015-Feb-15 18:33N 37°42' E 023°41'1211.6
2015-Feb-15 17:33N 37°50' E 023°30'1413.5
2015-Feb-15 16:32N 37°53' E 023°13'  

Dump ship's entire track history